sensor_id;sensor_type;location;lat;lon;timestamp;pressure;altitude;pressure_sealevel;temperature;humidity
22104;BME280;11218;48.886;9.426;2022-10-16T00:01:41;97933.19;;;15.94;92.45
22104;BME280;11218;48.886;9.426;2022-10-16T00:04:09;97942.94;;;15.95;92.48
22104;BME280;11218;48.886;9.426;2022-10-16T00:06:37;97948.09;;;15.96;92.25
22104;BME280;11218;48.886;9.426;2022-10-16T00:09:06;97947.28;;;15.96;92.40
22104;BME280;11218;48.886;9.426;2022-10-16T00:11:37;97944.34;;;15.92;92.25
22104;BME280;11218;48.886;9.426;2022-10-16T00:14:10;97937.22;;;15.96;92.60
22104;BME280;11218;48.886;9.426;2022-10-16T00:16:38;97941.03;;;15.95;92.34
22104;BME280;11218;48.886;9.426;2022-10-16T00:19:06;97938.84;;;15.97;92.40
22104;BME280;11218;48.886;9.426;2022-10-16T00:21:34;97936.66;;;15.99;92.33
22104;BME280;11218;48.886;9.426;2022-10-16T00:24:05;97930.94;;;16.01;92.23
22104;BME280;11218;48.886;9.426;2022-10-16T00:26:36;97935.56;;;16.00;91.98
22104;BME280;11218;48.886;9.426;2022-10-16T00:29:04;97939.91;;;16.01;91.85
22104;BME280;11218;48.886;9.426;2022-10-16T00:31:34;97935.28;;;16.02;92.26
22104;BME280;11218;48.886;9.426;2022-10-16T00:34:02;97929.84;;;16.02;91.78
22104;BME280;11218;48.886;9.426;2022-10-16T00:36:30;97932.28;;;16.03;91.66
22104;BME280;11218;48.886;9.426;2022-10-16T00:38:58;97922.56;;;15.97;91.89
22104;BME280;11218;48.886;9.426;2022-10-16T00:41:28;97935.56;;;16.00;91.74
22104;BME280;11218;48.886;9.426;2022-10-16T00:43:58;97932.31;;;15.98;92.23
22104;BME280;11218;48.886;9.426;2022-10-16T00:46:29;97939.94;;;15.96;91.68
22104;BME280;11218;48.886;9.426;2022-10-16T00:49:02;97935.31;;;15.97;91.99
22104;BME280;11218;48.886;9.426;2022-10-16T00:51:33;97940.75;;;15.97;91.95
22104;BME280;11218;48.886;9.426;2022-10-16T00:54:03;97948.91;;;15.97;92.17
22104;BME280;11218;48.886;9.426;2022-10-16T00:56:33;97949.19;;;15.95;92.08
22104;BME280;11218;48.886;9.426;2022-10-16T00:59:03;97954.63;;;15.95;92.04
22104;BME280;11218;48.886;9.426;2022-10-16T01:01:34;97940.53;;;15.93;91.99
22104;BME280;11218;48.886;9.426;2022-10-16T01:04:03;97941.03;;;15.95;91.73
22104;BME280;11218;48.886;9.426;2022-10-16T01:06:36;97947.81;;;15.98;91.75
22104;BME280;11218;48.886;9.426;2022-10-16T01:09:14;97947.00;;;15.97;91.79
22104;BME280;11218;48.886;9.426;2022-10-16T01:11:50;97949.72;;;15.97;91.69
22104;BME280;11218;48.886;9.426;2022-10-16T01:14:27;97954.03;;;15.98;91.51
22104;BME280;11218;48.886;9.426;2022-10-16T01:17:04;97962.72;;;16.00;91.32
22104;BME280;11218;48.886;9.426;2022-10-16T01:19:53;97965.72;;;15.99;91.12
22104;BME280;11218;48.886;9.426;2022-10-16T01:22:25;97965.72;;;15.99;91.19
22104;BME280;11218;48.886;9.426;2022-10-16T01:25:01;97970.06;;;16.00;91.39
22104;BME280;11218;48.886;9.426;2022-10-16T01:27:35;97958.91;;;16.01;90.86
22104;BME280;11218;48.886;9.426;2022-10-16T01:30:10;97964.63;;;16.00;91.47
22104;BME280;11218;48.886;9.426;2022-10-16T01:32:45;97958.38;;;15.99;91.25
22104;BME280;11218;48.886;9.426;2022-10-16T01:35:18;97947.22;;;16.01;91.37
22104;BME280;11218;48.886;9.426;2022-10-16T01:37:52;97945.63;;;16.00;91.20
22104;BME280;11218;48.886;9.426;2022-10-16T01:40:24;97944.00;;;15.99;91.49
22104;BME280;11218;48.886;9.426;2022-10-16T01:42:59;97951.84;;;16.00;91.42
22104;BME280;11218;48.886;9.426;2022-10-16T01:45:28;97960.25;;;16.04;91.08
22104;BME280;11218;48.886;9.426;2022-10-16T01:47:58;97954.00;;;16.03;91.13
22104;BME280;11218;48.886;9.426;2022-10-16T01:50:31;97951.34;;;15.98;91.51
22104;BME280;11218;48.886;9.426;2022-10-16T01:53:02;97951.84;;;16.00;91.29
22104;BME280;11218;48.886;9.426;2022-10-16T01:55:33;97948.31;;;16.00;91.46
22104;BME280;11218;48.886;9.426;2022-10-16T01:58:07;97953.47;;;16.01;91.32
22104;BME280;11218;48.886;9.426;2022-10-16T02:00:37;97950.47;;;16.03;91.14
22104;BME280;11218;48.886;9.426;2022-10-16T02:03:07;97960.53;;;16.02;91.13
22104;BME280;11218;48.886;9.426;2022-10-16T02:05:40;97951.56;;;16.02;90.87
22104;BME280;11218;48.886;9.426;2022-10-16T02:08:10;97948.84;;;16.02;90.77
22104;BME280;11218;48.886;9.426;2022-10-16T02:10:38;97943.41;;;16.02;90.88
22104;BME280;11218;48.886;9.426;2022-10-16T02:13:09;97928.50;;;15.99;91.02
22104;BME280;11218;48.886;9.426;2022-10-16T02:15:39;97930.94;;;16.01;91.05
22104;BME280;11218;48.886;9.426;2022-10-16T02:18:09;97932.28;;;16.03;90.11
22104;BME280;11218;48.886;9.426;2022-10-16T02:20:44;97932.22;;;16.08;90.34
22104;BME280;11218;48.886;9.426;2022-10-16T02:23:20;97934.66;;;16.10;90.17
22104;BME280;11218;48.886;9.426;2022-10-16T02:25:50;97933.84;;;16.09;89.89
22104;BME280;11218;48.886;9.426;2022-10-16T02:28:25;97939.56;;;16.08;90.27
22104;BME280;11218;48.886;9.426;2022-10-16T02:30:58;97941.75;;;16.06;90.26
22104;BME280;11218;48.886;9.426;2022-10-16T02:33:27;97943.41;;;16.02;90.40
22104;BME280;11218;48.886;9.426;2022-10-16T02:35:57;97939.66;;;15.98;90.50
22104;BME280;11218;48.886;9.426;2022-10-16T02:38:26;97940.72;;;16.02;90.66
22104;BME280;11218;48.886;9.426;2022-10-16T02:40:55;97951.28;;;16.03;90.35
22104;BME280;11218;48.886;9.426;2022-10-16T02:43:26;97953.72;;;16.05;90.02
22104;BME280;11218;48.886;9.426;2022-10-16T02:45:54;97948.56;;;16.03;90.34
22104;BME280;11218;48.886;9.426;2022-10-16T02:48:22;97937.53;;;15.95;90.41
22104;BME280;11218;48.886;9.426;2022-10-16T02:50:50;97943.41;;;16.02;90.29
22104;BME280;11218;48.886;9.426;2022-10-16T02:53:18;97955.91;;;16.03;89.86
22104;BME280;11218;48.886;9.426;2022-10-16T02:55:46;97946.41;;;16.00;90.20
22104;BME280;11218;48.886;9.426;2022-10-16T02:58:14;97939.09;;;16.01;90.38
22104;BME280;11218;48.886;9.426;2022-10-16T03:00:44;97942.38;;;15.98;90.64
22104;BME280;11218;48.886;9.426;2022-10-16T03:03:12;97947.00;;;15.97;90.63
22104;BME280;11218;48.886;9.426;2022-10-16T03:05:40;97941.03;;;15.95;90.37
22104;BME280;11218;48.886;9.426;2022-10-16T03:08:12;97947.28;;;15.96;90.94
22104;BME280;11218;48.886;9.426;2022-10-16T03:10:40;97945.94;;;15.93;90.89
22104;BME280;11218;48.886;9.426;2022-10-16T03:13:08;97957.09;;;15.92;91.14
22104;BME280;11218;48.886;9.426;2022-10-16T03:15:36;97950.34;;;15.89;91.25
22104;BME280;11218;48.886;9.426;2022-10-16T03:18:06;97954.44;;;15.87;90.98
22104;BME280;11218;48.886;9.426;2022-10-16T03:20:34;97956.91;;;15.83;91.60
22104;BME280;11218;48.886;9.426;2022-10-16T03:23:02;97956.66;;;15.80;91.86
22104;BME280;11218;48.886;9.426;2022-10-16T03:25:30;97954.22;;;15.78;92.03
22104;BME280;11218;48.886;9.426;2022-10-16T03:27:58;97957.75;;;15.78;91.80
22104;BME280;11218;48.886;9.426;2022-10-16T03:30:26;97961.31;;;15.74;92.03
22104;BME280;11218;48.886;9.426;2022-10-16T03:32:54;97957.81;;;15.73;92.28
22104;BME280;11218;48.886;9.426;2022-10-16T03:35:24;97952.94;;;15.70;91.93
22104;BME280;11218;48.886;9.426;2022-10-16T03:37:52;97955.94;;;15.69;92.14
22104;BME280;11218;48.886;9.426;2022-10-16T03:40:20;97950.81;;;15.67;92.14
22104;BME280;11218;48.886;9.426;2022-10-16T03:42:48;97960.00;;;15.71;92.19
22104;BME280;11218;48.886;9.426;2022-10-16T03:45:16;97952.94;;;15.70;91.62
22104;BME280;11218;48.886;9.426;2022-10-16T03:47:44;97952.69;;;15.67;91.88
22104;BME280;11218;48.886;9.426;2022-10-16T03:50:12;97953.00;;;15.65;91.92
22104;BME280;11218;48.886;9.426;2022-10-16T03:52:42;97959.25;;;15.61;92.25
22104;BME280;11218;48.886;9.426;2022-10-16T03:55:10;97957.97;;;15.58;92.24
22104;BME280;11218;48.886;9.426;2022-10-16T03:57:38;97958.78;;;15.54;92.25
22104;BME280;11218;48.886;9.426;2022-10-16T04:00:07;97960.41;;;15.55;92.65
22104;BME280;11218;48.886;9.426;2022-10-16T04:02:36;97966.09;;;15.58;92.36
22104;BME280;11218;48.886;9.426;2022-10-16T04:05:04;97962.59;;;15.53;92.67
22104;BME280;11218;48.886;9.426;2022-10-16T04:07:33;97966.91;;;15.54;92.77
22104;BME280;11218;48.886;9.426;2022-10-16T04:10:03;97957.97;;;15.53;92.61
22104;BME280;11218;48.886;9.426;2022-10-16T04:12:31;97965.81;;;15.55;92.69
22104;BME280;11218;48.886;9.426;2022-10-16T04:14:59;97964.50;;;15.52;92.80
22104;BME280;11218;48.886;9.426;2022-10-16T04:17:28;97973.19;;;15.49;92.64
22104;BME280;11218;48.886;9.426;2022-10-16T04:19:56;97981.88;;;15.51;92.80
22104;BME280;11218;48.886;9.426;2022-10-16T04:22:24;97975.91;;;15.49;92.75
22104;BME280;11218;48.886;9.426;2022-10-16T04:24:53;97979.72;;;15.48;93.05
22104;BME280;11218;48.886;9.426;2022-10-16T04:27:24;97984.91;;;15.44;92.97
22104;BME280;11218;48.886;9.426;2022-10-16T04:29:52;97978.41;;;15.40;92.85
22104;BME280;11218;48.886;9.426;2022-10-16T04:32:20;97979.50;;;15.39;92.84
22104;BME280;11218;48.886;9.426;2022-10-16T04:34:49;97984.94;;;15.39;92.82
22104;BME280;11218;48.886;9.426;2022-10-16T04:37:17;97986.31;;;15.37;92.93
22104;BME280;11218;48.886;9.426;2022-10-16T04:39:47;97984.97;;;15.34;93.07
22104;BME280;11218;48.886;9.426;2022-10-16T04:42:15;97978.72;;;15.34;92.85
22104;BME280;11218;48.886;9.426;2022-10-16T04:44:45;97974.69;;;15.31;92.79
22104;BME280;11218;48.886;9.426;2022-10-16T04:47:17;97980.69;;;15.23;92.71
22104;BME280;11218;48.886;9.426;2022-10-16T04:49:45;97988.84;;;15.23;92.91
22104;BME280;11218;48.886;9.426;2022-10-16T04:52:13;97994.81;;;15.20;93.29
22104;BME280;11218;48.886;9.426;2022-10-16T04:54:41;98001.59;;;15.23;93.09
22104;BME280;11218;48.886;9.426;2022-10-16T04:57:11;97996.94;;;15.28;92.73
22104;BME280;11218;48.886;9.426;2022-10-16T04:59:39;97998.06;;;15.22;93.26
22104;BME280;11218;48.886;9.426;2022-10-16T05:02:09;97991.56;;;15.18;93.41
22104;BME280;11218;48.886;9.426;2022-10-16T05:04:37;98002.16;;;15.20;93.44
22104;BME280;11218;48.886;9.426;2022-10-16T05:07:05;98007.56;;;15.20;93.48
22104;BME280;11218;48.886;9.426;2022-10-16T05:09:33;98006.72;;;15.24;93.48
22104;BME280;11218;48.886;9.426;2022-10-16T05:12:01;98016.75;;;15.24;93.34
22104;BME280;11218;48.886;9.426;2022-10-16T05:14:30;98020.81;;;15.26;93.50
22104;BME280;11218;48.886;9.426;2022-10-16T05:16:59;98022.16;;;15.29;92.95
22104;BME280;11218;48.886;9.426;2022-10-16T05:19:28;98017.53;;;15.29;93.20
22104;BME280;11218;48.886;9.426;2022-10-16T05:21:56;98027.34;;;15.25;93.11
22104;BME280;11218;48.886;9.426;2022-10-16T05:24:25;98025.16;;;15.27;93.45
22104;BME280;11218;48.886;9.426;2022-10-16T05:26:53;98026.25;;;15.26;93.50
22104;BME280;11218;48.886;9.426;2022-10-16T05:29:21;98012.69;;;15.26;93.80
22104;BME280;11218;48.886;9.426;2022-10-16T05:31:50;98014.59;;;15.26;93.90
22104;BME280;11218;48.886;9.426;2022-10-16T05:34:19;98003.19;;;15.24;93.69
22104;BME280;11218;48.886;9.426;2022-10-16T05:36:49;98012.72;;;15.21;93.64
22104;BME280;11218;48.886;9.426;2022-10-16T05:39:17;98028.13;;;15.26;93.88
22104;BME280;11218;48.886;9.426;2022-10-16T05:41:45;98028.16;;;15.21;94.00
22104;BME280;11218;48.886;9.426;2022-10-16T05:44:14;98013.28;;;15.18;93.82
22104;BME280;11218;48.886;9.426;2022-10-16T05:46:42;98013.00;;;15.20;93.85
22104;BME280;11218;48.886;9.426;2022-10-16T05:49:10;98022.50;;;15.17;94.10
22104;BME280;11218;48.886;9.426;2022-10-16T05:51:38;98024.69;;;15.15;94.28
22104;BME280;11218;48.886;9.426;2022-10-16T05:54:07;98027.94;;;15.12;94.37
22104;BME280;11218;48.886;9.426;2022-10-16T05:56:35;98040.41;;;15.13;94.26
22104;BME280;11218;48.886;9.426;2022-10-16T05:59:04;98037.16;;;15.11;93.99
22104;BME280;11218;48.886;9.426;2022-10-16T06:01:32;98037.44;;;15.09;94.24
22104;BME280;11218;48.886;9.426;2022-10-16T06:04:01;98036.38;;;15.05;94.36
22104;BME280;11218;48.886;9.426;2022-10-16T06:06:29;98035.56;;;15.05;94.68
22104;BME280;11218;48.886;9.426;2022-10-16T06:08:57;98042.34;;;15.02;94.83
22104;BME280;11218;48.886;9.426;2022-10-16T06:11:30;98053.47;;;15.06;94.78
22104;BME280;11218;48.886;9.426;2022-10-16T06:14:00;98059.69;;;15.06;94.96
22104;BME280;11218;48.886;9.426;2022-10-16T06:16:29;98058.88;;;15.06;94.88
22104;BME280;11218;48.886;9.426;2022-10-16T06:18:58;98055.34;;;15.05;95.12
22104;BME280;11218;48.886;9.426;2022-10-16T06:21:27;98049.13;;;15.05;94.86
22104;BME280;11218;48.886;9.426;2022-10-16T06:23:56;98061.31;;;15.07;94.51
22104;BME280;11218;48.886;9.426;2022-10-16T06:26:28;98050.19;;;15.09;94.08
22104;BME280;11218;48.886;9.426;2022-10-16T06:28:58;98060.22;;;15.08;94.41
22104;BME280;11218;48.886;9.426;2022-10-16T06:31:27;98063.47;;;15.10;94.76
22104;BME280;11218;48.886;9.426;2022-10-16T06:33:57;98070.25;;;15.08;94.92
22104;BME280;11218;48.886;9.426;2022-10-16T06:36:26;98065.38;;;15.10;94.95
22104;BME280;11218;48.886;9.426;2022-10-16T06:38:54;98070.78;;;15.10;95.20
22104;BME280;11218;48.886;9.426;2022-10-16T06:41:22;98065.91;;;15.12;95.18
22104;BME280;11218;48.886;9.426;2022-10-16T06:43:52;98065.63;;;15.13;95.03
22104;BME280;11218;48.886;9.426;2022-10-16T06:46:21;98066.16;;;15.16;95.10
22104;BME280;11218;48.886;9.426;2022-10-16T06:48:50;98063.16;;;15.17;95.19
22104;BME280;11218;48.886;9.426;2022-10-16T06:51:19;98069.13;;;15.19;95.23
22104;BME280;11218;48.886;9.426;2022-10-16T06:53:48;98074.53;;;15.24;94.57
22104;BME280;11218;48.886;9.426;2022-10-16T06:56:32;98076.97;;;15.21;94.91
22104;BME280;11218;48.886;9.426;2022-10-16T06:59:02;98085.13;;;15.21;95.02
22104;BME280;11218;48.886;9.426;2022-10-16T07:01:31;98084.84;;;15.22;95.06
22104;BME280;11218;48.886;9.426;2022-10-16T07:04:00;98087.84;;;15.21;95.50
22104;BME280;11218;48.886;9.426;2022-10-16T07:06:31;98103.53;;;15.29;94.81
22104;BME280;11218;48.886;9.426;2022-10-16T07:09:02;98107.03;;;15.29;95.25
22104;BME280;11218;48.886;9.426;2022-10-16T07:11:31;98106.22;;;15.29;95.40
22104;BME280;11218;48.886;9.426;2022-10-16T07:13:58;98110.28;;;15.31;95.41
22104;BME280;11218;48.886;9.426;2022-10-16T07:16:29;98114.06;;;15.35;95.54
22104;BME280;11218;48.886;9.426;2022-10-16T07:18:59;98117.56;;;15.41;95.99
22104;BME280;11218;48.886;9.426;2022-10-16T07:21:29;98125.41;;;15.48;95.31
22104;BME280;11218;48.886;9.426;2022-10-16T07:24:03;98125.63;;;15.56;95.64
22104;BME280;11218;48.886;9.426;2022-10-16T07:26:34;98125.91;;;15.60;95.68
22104;BME280;11218;48.886;9.426;2022-10-16T07:29:02;98131.00;;;15.66;95.82
22104;BME280;11218;48.886;9.426;2022-10-16T07:31:32;98129.88;;;15.72;95.91
22104;BME280;11218;48.886;9.426;2022-10-16T07:34:00;98136.94;;;15.73;95.98
22104;BME280;11218;48.886;9.426;2022-10-16T07:36:29;98139.63;;;15.78;95.78
22104;BME280;11218;48.886;9.426;2022-10-16T07:38:57;98139.63;;;15.78;95.75
22104;BME280;11218;48.886;9.426;2022-10-16T07:41:26;98149.09;;;15.81;96.00
22104;BME280;11218;48.886;9.426;2022-10-16T07:44:08;98150.44;;;15.84;95.70
22104;BME280;11218;48.886;9.426;2022-10-16T07:46:40;98161.31;;;15.84;96.01
22104;BME280;11218;48.886;9.426;2022-10-16T07:49:08;98161.88;;;15.81;96.03
22104;BME280;11218;48.886;9.426;2022-10-16T07:51:36;98169.72;;;15.82;96.14
22104;BME280;11218;48.886;9.426;2022-10-16T07:54:05;98174.06;;;15.83;96.19
22104;BME280;11218;48.886;9.426;2022-10-16T07:56:33;98168.63;;;15.83;96.40
22104;BME280;11218;48.886;9.426;2022-10-16T07:59:05;98171.34;;;15.83;96.58
22104;BME280;11218;48.886;9.426;2022-10-16T08:01:35;98167.53;;;15.84;96.39
22104;BME280;11218;48.886;9.426;2022-10-16T08:04:10;98174.31;;;15.87;96.73
22104;BME280;11218;48.886;9.426;2022-10-16T08:06:43;98169.41;;;15.89;96.87
22104;BME280;11218;48.886;9.426;2022-10-16T08:09:11;98178.34;;;15.94;96.87
22104;BME280;11218;48.886;9.426;2022-10-16T08:11:39;98172.06;;;15.99;96.59
22104;BME280;11218;48.886;9.426;2022-10-16T08:14:10;98169.03;;;16.05;96.34
22104;BME280;11218;48.886;9.426;2022-10-16T08:16:38;98166.88;;;16.07;96.45
22104;BME280;11218;48.886;9.426;2022-10-16T08:19:09;98167.59;;;16.18;96.28
22104;BME280;11218;48.886;9.426;2022-10-16T08:21:37;98161.03;;;16.24;96.34
22104;BME280;11218;48.886;9.426;2022-10-16T08:24:05;98167.78;;;16.32;95.87
22104;BME280;11218;48.886;9.426;2022-10-16T08:26:34;98173.38;;;16.40;95.76
22104;BME280;11218;48.886;9.426;2022-10-16T08:29:01;98171.97;;;16.48;95.40
22104;BME280;11218;48.886;9.426;2022-10-16T08:31:29;98178.94;;;16.59;94.53
22104;BME280;11218;48.886;9.426;2022-10-16T08:34:00;98174.53;;;16.68;93.79
22104;BME280;11218;48.886;9.426;2022-10-16T08:36:38;98164.66;;;16.78;92.93
22104;BME280;11218;48.886;9.426;2022-10-16T08:39:06;98174.53;;;16.97;92.20
22104;BME280;11218;48.886;9.426;2022-10-16T08:41:57;98183.72;;;17.25;91.16
22104;BME280;11218;48.886;9.426;2022-10-16T08:44:37;98197.09;;;17.46;90.02
22104;BME280;11218;48.886;9.426;2022-10-16T08:47:34;98197.44;;;17.63;89.05
22104;BME280;11218;48.886;9.426;2022-10-16T08:50:21;98193.22;;;17.76;87.72
22104;BME280;11218;48.886;9.426;2022-10-16T08:52:51;98200.94;;;17.87;87.80
22104;BME280;11218;48.886;9.426;2022-10-16T08:55:29;98204.72;;;18.10;85.94
22104;BME280;11218;48.886;9.426;2022-10-16T08:58:00;98211.94;;;18.20;85.44
22104;BME280;11218;48.886;9.426;2022-10-16T09:00:29;98203.38;;;18.26;85.00
22104;BME280;11218;48.886;9.426;2022-10-16T09:03:05;98201.63;;;18.35;84.38
22104;BME280;11218;48.886;9.426;2022-10-16T09:08:51;98196.47;;;18.34;84.13
22104;BME280;11218;48.886;9.426;2022-10-16T09:11:32;98196.25;;;18.30;84.11
22104;BME280;11218;48.886;9.426;2022-10-16T09:14:15;98198.16;;;18.30;83.69
22104;BME280;11218;48.886;9.426;2022-10-16T09:16:54;98198.22;;;18.25;83.85
22104;BME280;11218;48.886;9.426;2022-10-16T09:19:28;98199.84;;;18.26;83.72
22104;BME280;11218;48.886;9.426;2022-10-16T09:21:59;98213.69;;;18.29;83.74
22104;BME280;11218;48.886;9.426;2022-10-16T09:24:31;98217.00;;;18.26;84.02
22104;BME280;11218;48.886;9.426;2022-10-16T09:26:59;98211.84;;;18.25;83.95
22104;BME280;11218;48.886;9.426;2022-10-16T09:29:27;98213.78;;;18.24;83.95
22104;BME280;11218;48.886;9.426;2022-10-16T09:31:56;98214.13;;;18.36;83.03
22104;BME280;11218;48.886;9.426;2022-10-16T09:34:30;98208.03;;;18.58;81.90
22104;BME280;11218;48.886;9.426;2022-10-16T09:37:03;98213.75;;;18.94;80.40
22104;BME280;11218;48.886;9.426;2022-10-16T09:39:44;98224.50;;;19.32;78.89
22104;BME280;11218;48.886;9.426;2022-10-16T09:42:15;98233.44;;;19.65;77.20
22104;BME280;11218;48.886;9.426;2022-10-16T09:44:47;98234.66;;;19.86;75.41
22104;BME280;11218;48.886;9.426;2022-10-16T09:47:19;98237.56;;;19.90;75.80
22104;BME280;11218;48.886;9.426;2022-10-16T09:49:53;98241.22;;;19.85;74.78
22104;BME280;11218;48.886;9.426;2022-10-16T09:52:28;98233.72;;;19.91;75.28
22104;BME280;11218;48.886;9.426;2022-10-16T09:55:01;98235.88;;;19.80;75.46
22104;BME280;11218;48.886;9.426;2022-10-16T09:57:33;98237.19;;;19.69;75.57
22104;BME280;11218;48.886;9.426;2022-10-16T10:00:08;98234.75;;;19.67;75.55
22104;BME280;11218;48.886;9.426;2022-10-16T10:02:37;98237.59;;;19.76;75.88
22104;BME280;11218;48.886;9.426;2022-10-16T10:05:17;98242.22;;;19.89;76.05
22104;BME280;11218;48.886;9.426;2022-10-16T10:07:54;98252.28;;;20.16;74.08
22104;BME280;11218;48.886;9.426;2022-10-16T10:10:28;98241.72;;;20.37;73.21
22104;BME280;11218;48.886;9.426;2022-10-16T10:13:14;98244.81;;;20.58;73.05
22104;BME280;11218;48.886;9.426;2022-10-16T10:15:44;98248.84;;;20.83;72.47
22104;BME280;11218;48.886;9.426;2022-10-16T10:18:17;98252.31;;;20.97;71.37
22104;BME280;11218;48.886;9.426;2022-10-16T10:20:57;98242.97;;;21.20;70.72
22104;BME280;11218;48.886;9.426;2022-10-16T10:23:26;98251.25;;;21.29;69.77
22104;BME280;11218;48.886;9.426;2022-10-16T10:26:02;98251.78;;;21.40;68.98
22104;BME280;11218;48.886;9.426;2022-10-16T10:29:05;98248.78;;;21.58;68.65
22104;BME280;11218;48.886;9.426;2022-10-16T10:31:42;98250.81;;;21.84;67.42
22104;BME280;11218;48.886;9.426;2022-10-16T10:34:29;98246.00;;;21.98;66.65
22104;BME280;11218;48.886;9.426;2022-10-16T10:37:04;98247.34;;;22.09;64.66
22104;BME280;11218;48.886;9.426;2022-10-16T10:39:47;98247.88;;;22.20;65.55
22104;BME280;11218;48.886;9.426;2022-10-16T10:42:27;98253.00;;;22.30;63.66
22104;BME280;11218;48.886;9.426;2022-10-16T10:45:17;98245.59;;;22.39;62.09
22104;BME280;11218;48.886;9.426;2022-10-16T10:47:59;98249.16;;;22.57;60.69
22104;BME280;11218;48.886;9.426;2022-10-16T10:50:38;98246.41;;;22.74;58.90
22104;BME280;11218;48.886;9.426;2022-10-16T10:53:18;98253.22;;;22.94;59.64
22104;BME280;11218;48.886;9.426;2022-10-16T10:55:53;98258.97;;;23.10;59.29
22104;BME280;11218;48.886;9.426;2022-10-16T11:01:33;98255.06;;;23.19;60.18
22104;BME280;11218;48.886;9.426;2022-10-16T11:04:20;98268.78;;;23.28;57.98
22104;BME280;11218;48.886;9.426;2022-10-16T11:06:55;98258.78;;;23.23;57.52
22104;BME280;11218;48.886;9.426;2022-10-16T11:09:28;98253.44;;;23.27;56.50
22104;BME280;11218;48.886;9.426;2022-10-16T11:12:02;98255.38;;;23.26;58.26
22104;BME280;11218;48.886;9.426;2022-10-16T11:14:49;98256.00;;;23.32;58.32
22104;BME280;11218;48.886;9.426;2022-10-16T11:17:25;98255.53;;;23.30;57.96
22104;BME280;11218;48.886;9.426;2022-10-16T11:19:58;98252.44;;;23.32;56.47
22104;BME280;11218;48.886;9.426;2022-10-16T11:22:32;98248.56;;;23.33;56.54
22104;BME280;11218;48.886;9.426;2022-10-16T11:25:06;98240.66;;;23.31;57.51
22104;BME280;11218;48.886;9.426;2022-10-16T11:27:47;98243.88;;;23.33;57.79
22104;BME280;11218;48.886;9.426;2022-10-16T11:30:21;98237.72;;;23.36;58.21
22104;BME280;11218;48.886;9.426;2022-10-16T11:33:08;98241.59;;;23.44;57.26
22104;BME280;11218;48.886;9.426;2022-10-16T11:35:56;98234.28;;;23.48;56.06
22104;BME280;11218;48.886;9.426;2022-10-16T11:38:31;98228.94;;;23.51;56.49
22104;BME280;11218;48.886;9.426;2022-10-16T11:41:06;98230.09;;;23.50;56.08
22104;BME280;11218;48.886;9.426;2022-10-16T11:43:43;98234.50;;;23.34;56.21
22104;BME280;11218;48.886;9.426;2022-10-16T11:46:19;98222.53;;;23.39;57.10
22104;BME280;11218;48.886;9.426;2022-10-16T11:48:54;98223.31;;;23.48;57.80
22104;BME280;11218;48.886;9.426;2022-10-16T11:51:31;98228.63;;;23.62;57.98
22104;BME280;11218;48.886;9.426;2022-10-16T11:54:07;98236.81;;;23.70;57.80
22104;BME280;11218;48.886;9.426;2022-10-16T11:56:40;98238.91;;;23.73;57.31
22104;BME280;11218;48.886;9.426;2022-10-16T11:59:14;98237.78;;;23.74;58.03
22104;BME280;11218;48.886;9.426;2022-10-16T12:01:49;98242.41;;;23.82;57.75
22104;BME280;11218;48.886;9.426;2022-10-16T12:04:27;98243.06;;;23.79;57.28
22104;BME280;11218;48.886;9.426;2022-10-16T12:07:04;98237.44;;;23.76;56.48
22104;BME280;11218;48.886;9.426;2022-10-16T12:09:36;98233.34;;;23.82;56.68
22104;BME280;11218;48.886;9.426;2022-10-16T12:12:24;98230.03;;;23.97;56.63
22104;BME280;11218;48.886;9.426;2022-10-16T12:15:00;98235.13;;;24.07;56.32
22104;BME280;11218;48.886;9.426;2022-10-16T12:17:45;98238.03;;;24.11;55.53
22104;BME280;11218;48.886;9.426;2022-10-16T12:20:24;98228.09;;;24.18;52.90
22104;BME280;11218;48.886;9.426;2022-10-16T12:22:55;98220.09;;;24.05;53.22
22104;BME280;11218;48.886;9.426;2022-10-16T12:25:26;98227.22;;;24.06;54.49
22104;BME280;11218;48.886;9.426;2022-10-16T12:28:00;98222.00;;;24.13;54.46
22104;BME280;11218;48.886;9.426;2022-10-16T12:30:32;98224.31;;;24.02;54.87
22104;BME280;11218;48.886;9.426;2022-10-16T12:33:04;98215.00;;;23.95;54.17
22104;BME280;11218;48.886;9.426;2022-10-16T12:35:44;98222.19;;;24.08;53.77
22104;BME280;11218;48.886;9.426;2022-10-16T12:38:16;98221.25;;;24.04;53.09
22104;BME280;11218;48.886;9.426;2022-10-16T12:40:46;98220.81;;;23.93;53.85
22104;BME280;11218;48.886;9.426;2022-10-16T12:43:28;98217.66;;;23.82;54.77
22104;BME280;11218;48.886;9.426;2022-10-16T12:46:22;98222.47;;;23.65;55.23
22104;BME280;11218;48.886;9.426;2022-10-16T12:48:52;98218.16;;;23.38;55.21
22104;BME280;11218;48.886;9.426;2022-10-16T12:51:36;98221.78;;;23.21;55.22
22104;BME280;11218;48.886;9.426;2022-10-16T12:54:11;98227.94;;;23.09;55.92
22104;BME280;11218;48.886;9.426;2022-10-16T12:56:51;98230.09;;;22.95;56.23
22104;BME280;11218;48.886;9.426;2022-10-16T12:59:33;98229.63;;;22.93;56.99
22104;BME280;11218;48.886;9.426;2022-10-16T13:02:22;98230.53;;;23.14;56.66
22104;BME280;11218;48.886;9.426;2022-10-16T13:05:05;98225.19;;;23.18;55.71
22104;BME280;11218;48.886;9.426;2022-10-16T13:07:55;98225.50;;;23.16;54.44
22104;BME280;11218;48.886;9.426;2022-10-16T13:10:30;98239.47;;;22.94;55.64
22104;BME280;11218;48.886;9.426;2022-10-16T13:13:23;98239.81;;;22.84;57.57
22104;BME280;11218;48.886;9.426;2022-10-16T13:16:04;98248.53;;;22.94;58.40
22104;BME280;11218;48.886;9.426;2022-10-16T13:18:44;98249.44;;;23.07;57.73
22104;BME280;11218;48.886;9.426;2022-10-16T13:21:26;98256.22;;;23.10;57.25
22104;BME280;11218;48.886;9.426;2022-10-16T13:24:07;98257.88;;;23.02;57.36
22104;BME280;11218;48.886;9.426;2022-10-16T13:26:44;98253.06;;;22.90;56.98
22104;BME280;11218;48.886;9.426;2022-10-16T13:29:15;98250.47;;;22.85;57.16
22104;BME280;11218;48.886;9.426;2022-10-16T13:31:44;98247.88;;;22.80;57.14
22104;BME280;11218;48.886;9.426;2022-10-16T13:34:14;98250.44;;;22.77;58.42